createdAt,value
2018-09-29T00:01:15.562Z,2.67
2018-09-29T00:03:43.814Z,3.13
2018-09-29T00:06:12.170Z,2.80
2018-09-29T00:08:40.885Z,2.40
2018-09-29T00:11:09.665Z,3.30
2018-09-29T00:13:38.196Z,2.67
2018-09-29T00:16:06.788Z,2.20
2018-09-29T00:18:35.847Z,3.00
2018-09-29T00:21:04.210Z,2.80
2018-09-29T00:23:32.742Z,2.70
2018-09-29T00:26:01.150Z,2.50
2018-09-29T00:28:29.489Z,2.90
2018-09-29T00:30:58.032Z,2.33
2018-09-29T00:33:26.351Z,2.60
2018-09-29T00:35:54.882Z,3.80
2018-09-29T00:38:23.108Z,3.03
2018-09-29T00:40:51.333Z,2.67
2018-09-29T00:43:20.342Z,3.27
2018-09-29T00:45:48.698Z,3.23
2018-09-29T00:48:16.967Z,3.23
2018-09-29T00:50:45.589Z,2.90
2018-09-29T00:53:14.328Z,2.40
2018-09-29T00:55:42.748Z,2.47
2018-09-29T00:58:11.201Z,3.27
2018-09-29T01:00:39.492Z,3.03
2018-09-29T01:03:07.880Z,2.80
2018-09-29T01:05:36.402Z,2.60
2018-09-29T01:08:04.897Z,2.33
2018-09-29T01:10:33.324Z,2.50
2018-09-29T01:13:01.617Z,2.50
2018-09-29T01:15:29.865Z,2.27
2018-09-29T01:17:58.102Z,2.80
2018-09-29T01:20:26.423Z,3.27
2018-09-29T01:22:54.798Z,2.53
2018-09-29T01:25:23.073Z,2.83
2018-09-29T01:27:51.330Z,1.97
2018-09-29T01:30:19.539Z,1.77
2018-09-29T01:32:47.913Z,2.30
2018-09-29T01:35:16.336Z,2.30
2018-09-29T01:37:44.566Z,2.43
2018-09-29T01:40:12.817Z,2.00
2018-09-29T01:42:41.094Z,2.50
2018-09-29T01:45:09.585Z,2.80
2018-09-29T01:47:37.852Z,2.20
2018-09-29T01:50:06.230Z,1.60
2018-09-29T01:52:34.577Z,2.20
2018-09-29T01:55:02.782Z,3.33
2018-09-29T01:57:31.964Z,2.17
2018-09-29T02:00:00.236Z,2.30
2018-09-29T02:02:28.545Z,5.17
2018-09-29T02:04:56.867Z,6.70
2018-09-29T02:07:25.129Z,6.10
2018-09-29T02:09:54.124Z,5.00
2018-09-29T02:12:22.587Z,4.00
2018-09-29T02:14:50.938Z,2.40
2018-09-29T02:17:19.195Z,2.53
2018-09-29T02:19:47.402Z,2.00
2018-09-29T02:22:15.882Z,1.83
2018-09-29T02:24:44.145Z,2.00
2018-09-29T02:27:12.607Z,2.20
2018-09-29T02:29:41.100Z,2.15
2018-09-29T02:32:09.486Z,1.60
2018-09-29T02:34:38.021Z,1.60
2018-09-29T02:37:06.424Z,1.30
2018-09-29T02:39:34.714Z,2.15
2018-09-29T02:42:03.060Z,1.60
2018-09-29T02:44:31.450Z,1.62
2018-09-29T02:46:59.735Z,1.82
2018-09-29T02:49:27.945Z,2.13
2018-09-29T02:51:56.720Z,1.77
2018-09-29T02:54:25.026Z,1.80
2018-09-29T02:56:53.373Z,1.72
2018-09-29T02:59:21.969Z,1.80
2018-09-29T03:01:50.230Z,2.20
2018-09-29T03:04:18.543Z,1.87
2018-09-29T03:06:46.914Z,2.25
2018-09-29T03:09:15.644Z,2.67
2018-09-29T03:11:43.897Z,3.03
2018-09-29T03:14:12.162Z,1.90
2018-09-29T03:16:40.359Z,1.70
2018-09-29T03:19:08.618Z,1.90
2018-09-29T03:21:36.841Z,1.80
2018-09-29T03:24:05.228Z,1.77
2018-09-29T03:26:34.044Z,1.70
2018-09-29T03:29:02.318Z,2.02
2018-09-29T03:31:30.570Z,2.12
2018-09-29T03:33:59.034Z,2.02
2018-09-29T03:36:27.359Z,2.17
2018-09-29T03:38:55.718Z,1.70
2018-09-29T03:41:23.973Z,2.37
2018-09-29T03:43:52.277Z,1.85
2018-09-29T03:46:20.524Z,1.62
2018-09-29T03:48:48.900Z,1.52
2018-09-29T03:51:17.217Z,1.20
2018-09-29T03:53:45.529Z,1.50
2018-09-29T03:56:13.770Z,1.15
2018-09-29T03:58:42.041Z,1.95
2018-09-29T04:01:10.261Z,2.00
2018-09-29T04:03:38.662Z,2.65
2018-09-29T04:06:06.926Z,1.67
2018-09-29T04:08:35.241Z,1.70
2018-09-29T04:11:03.479Z,2.02
2018-09-29T04:13:31.775Z,1.92
2018-09-29T04:16:00.025Z,1.87
2018-09-29T04:18:28.239Z,1.67
2018-09-29T04:20:56.579Z,2.22
2018-09-29T04:23:24.961Z,1.50
2018-09-29T04:25:53.386Z,1.50
2018-09-29T04:28:21.660Z,2.25
2018-09-29T04:30:49.922Z,1.80
2018-09-29T04:33:18.146Z,2.17
2018-09-29T04:35:46.468Z,1.40
2018-09-29T04:38:14.803Z,1.80
2018-09-29T04:40:43.245Z,2.15
2018-09-29T04:43:11.612Z,1.92
2018-09-29T04:45:39.882Z,1.45
2018-09-29T04:48:08.141Z,1.98
2018-09-29T04:50:36.425Z,1.45
2018-09-29T04:53:04.718Z,1.92
2018-09-29T04:55:33.004Z,3.12
2018-09-29T04:58:01.420Z,2.05
2018-09-29T05:00:29.733Z,1.67
2018-09-29T05:02:58.538Z,2.67
2018-09-29T05:05:26.970Z,2.15
2018-09-29T05:07:55.514Z,1.90
2018-09-29T05:10:23.786Z,1.57
2018-09-29T05:12:52.143Z,1.70
2018-09-29T05:15:20.402Z,1.52
2018-09-29T05:17:48.625Z,1.67
2018-09-29T05:20:16.877Z,1.42
2018-09-29T05:22:45.302Z,1.87
2018-09-29T05:25:13.630Z,2.30
2018-09-29T05:27:42.042Z,2.05
2018-09-29T05:30:10.978Z,2.37
2018-09-29T05:32:39.261Z,1.77
2018-09-29T05:35:07.556Z,1.80
2018-09-29T05:37:35.990Z,1.92
2018-09-29T05:40:04.394Z,1.75
2018-09-29T05:42:32.757Z,1.50
2018-09-29T05:45:00.981Z,1.80
2018-09-29T05:47:29.247Z,1.50
2018-09-29T05:49:57.610Z,1.92
2018-09-29T05:52:25.919Z,2.62
2018-09-29T05:54:54.203Z,2.30
2018-09-29T05:57:22.716Z,2.00
2018-09-29T05:59:51.064Z,1.82
2018-09-29T06:02:19.310Z,1.40
2018-09-29T06:04:47.576Z,1.65
2018-09-29T06:07:15.910Z,1.70
2018-09-29T06:09:44.223Z,2.00
2018-09-29T06:12:12.692Z,2.50
2018-09-29T06:14:42.129Z,1.60
2018-09-29T06:17:10.378Z,1.70
2018-09-29T06:19:38.758Z,1.72
2018-09-29T06:22:07.074Z,1.35
2018-09-29T06:24:35.549Z,1.60
2018-09-29T06:27:03.844Z,1.70
2018-09-29T06:29:32.146Z,1.47
2018-09-29T06:32:00.342Z,1.60
2018-09-29T06:34:28.562Z,1.80
2018-09-29T06:36:57.282Z,1.95
2018-09-29T06:39:25.435Z,1.90
2018-09-29T06:41:53.785Z,1.85
2018-09-29T06:44:22.158Z,2.30
2018-09-29T06:46:50.548Z,1.62
2018-09-29T06:49:18.808Z,1.75
2018-09-29T06:51:47.170Z,1.90
2018-09-29T06:54:15.450Z,2.27
2018-09-29T06:56:43.930Z,1.90
2018-09-29T06:59:12.241Z,1.62
2018-09-29T07:01:40.675Z,2.70
2018-09-29T07:04:09.072Z,2.15
2018-09-29T07:06:37.359Z,2.33
2018-09-29T07:09:08.914Z,2.10
2018-09-29T07:11:37.370Z,1.50
2018-09-29T07:14:05.839Z,1.40
2018-09-29T07:16:34.152Z,1.65
2018-09-29T07:19:02.459Z,1.20
2018-09-29T07:21:30.874Z,1.80
2018-09-29T07:23:59.259Z,1.80
2018-09-29T07:26:27.764Z,1.80
2018-09-29T07:28:56.419Z,1.55
2018-09-29T07:31:24.740Z,1.75
2018-09-29T07:33:52.980Z,1.98
2018-09-29T07:36:21.278Z,1.80
2018-09-29T07:38:49.617Z,2.00
2018-09-29T07:41:18.038Z,2.00
2018-09-29T07:43:46.542Z,2.03
2018-09-29T07:46:15.085Z,2.00
2018-09-29T07:48:43.396Z,1.93
2018-09-29T07:51:11.754Z,2.20
2018-09-29T07:53:40.184Z,2.50
2018-09-29T07:56:08.844Z,1.70
2018-09-29T07:58:37.319Z,2.10
2018-09-29T08:01:05.778Z,1.53
2018-09-29T08:03:34.088Z,3.77
2018-09-29T08:06:02.358Z,1.80
2018-09-29T08:08:30.605Z,2.17
2018-09-29T08:10:59.124Z,1.87
2018-09-29T08:13:27.442Z,1.90
2018-09-29T08:15:55.770Z,2.50
2018-09-29T08:18:24.110Z,2.00
2018-09-29T08:20:52.450Z,2.03
2018-09-29T08:23:20.688Z,2.07
2018-09-29T08:25:49.006Z,1.50
2018-09-29T08:28:17.307Z,2.10
2018-09-29T08:30:45.759Z,1.60
2018-09-29T08:33:14.186Z,2.27
2018-09-29T08:35:42.455Z,2.80
2018-09-29T08:38:10.923Z,2.00
2018-09-29T08:40:39.205Z,2.33
2018-09-29T08:43:07.575Z,2.30
2018-09-29T08:45:35.896Z,1.73
2018-09-29T08:48:04.846Z,2.30
2018-09-29T08:50:33.257Z,2.70
2018-09-29T08:53:01.855Z,2.13
2018-09-29T08:55:30.030Z,2.50
2018-09-29T08:57:59.179Z,3.40
2018-09-29T09:00:27.458Z,5.30
2018-09-29T09:02:55.753Z,3.30
2018-09-29T09:05:24.030Z,2.33
2018-09-29T09:07:52.514Z,2.77
2018-09-29T09:10:20.972Z,2.63
2018-09-29T09:12:49.297Z,2.50
2018-09-29T09:15:17.543Z,2.87
2018-09-29T09:17:45.887Z,2.47
2018-09-29T09:20:20.858Z,2.50
2018-09-29T09:22:49.265Z,2.50
2018-09-29T09:25:17.547Z,2.47
2018-09-29T09:27:46.019Z,3.70
2018-09-29T09:30:14.378Z,2.80
2018-09-29T09:32:42.646Z,3.90
2018-09-29T09:35:11.001Z,3.47
2018-09-29T09:37:39.320Z,3.07
2018-09-29T09:40:07.877Z,2.93
2018-09-29T09:42:37.406Z,2.57
2018-09-29T09:45:06.699Z,4.13
2018-09-29T09:47:35.090Z,3.57
2018-09-29T09:50:03.522Z,3.97
2018-09-29T09:52:32.198Z,3.10
2018-09-29T09:55:00.533Z,3.00
2018-09-29T09:57:28.870Z,3.40
2018-09-29T09:59:57.175Z,3.33
2018-09-29T10:02:30.766Z,5.27
2018-09-29T10:04:59.045Z,6.60
2018-09-29T10:07:27.302Z,6.73
2018-09-29T10:09:55.598Z,3.57
2018-09-29T10:12:24.014Z,3.80
2018-09-29T10:14:52.497Z,4.23
2018-09-29T10:17:20.787Z,4.10
2018-09-29T10:19:49.121Z,4.10
2018-09-29T10:22:17.386Z,4.27
2018-09-29T10:24:45.684Z,3.97
2018-09-29T10:27:13.954Z,3.97
2018-09-29T10:29:42.235Z,3.73
2018-09-29T10:32:10.598Z,3.57
2018-09-29T10:34:38.973Z,4.10
2018-09-29T10:37:07.243Z,5.33
2018-09-29T10:39:35.957Z,4.53
2018-09-29T10:42:04.315Z,5.33
2018-09-29T10:44:32.659Z,5.20
2018-09-29T10:47:00.969Z,6.00
2018-09-29T10:49:29.221Z,4.77
2018-09-29T10:51:57.599Z,4.97
2018-09-29T10:54:25.975Z,4.90
2018-09-29T10:56:55.194Z,4.83
2018-09-29T10:59:23.478Z,5.10
2018-09-29T11:01:51.754Z,5.10
2018-09-29T11:04:20.045Z,4.57
2018-09-29T11:06:48.367Z,6.07
2018-09-29T11:09:16.586Z,5.23
2018-09-29T11:11:44.895Z,5.00
2018-09-29T11:14:13.445Z,6.50
2018-09-29T11:16:42.286Z,5.47
2018-09-29T11:19:10.773Z,5.70
2018-09-29T11:21:39.153Z,5.83
2018-09-29T11:24:07.496Z,6.13
2018-09-29T11:26:37.521Z,5.60
2018-09-29T11:29:05.945Z,5.43
2018-09-29T11:31:34.390Z,7.43
2018-09-29T11:34:05.391Z,7.67
2018-09-29T11:36:33.793Z,6.77
2018-09-29T11:39:02.108Z,6.03
2018-09-29T11:41:30.434Z,6.63
2018-09-29T11:43:58.767Z,5.50
2018-09-29T11:46:27.031Z,6.60
2018-09-29T11:48:55.343Z,6.30
2018-09-29T11:51:23.702Z,6.80
2018-09-29T11:53:51.943Z,6.53
2018-09-29T11:56:20.758Z,5.97
2018-09-29T11:58:49.046Z,6.70
2018-09-29T12:01:17.830Z,6.90
2018-09-29T12:03:46.150Z,6.43
2018-09-29T12:06:14.442Z,6.27
2018-09-29T12:08:42.925Z,6.50
2018-09-29T12:11:11.945Z,5.57
2018-09-29T12:13:40.935Z,5.27
2018-09-29T12:16:09.246Z,6.60
2018-09-29T12:18:37.703Z,4.90
2018-09-29T12:21:06.101Z,9.93
2018-09-29T12:23:34.468Z,6.13
2018-09-29T12:26:02.807Z,7.03
2018-09-29T12:28:31.436Z,7.37
2018-09-29T12:31:00.014Z,6.23
2018-09-29T12:33:28.314Z,6.80
2018-09-29T12:35:56.640Z,6.10
2018-09-29T12:38:25.075Z,5.20
2018-09-29T12:40:53.384Z,5.70
2018-09-29T12:43:21.774Z,5.80
2018-09-29T12:45:50.049Z,7.43
2018-09-29T12:48:18.356Z,5.43
2018-09-29T12:50:46.634Z,6.13
2018-09-29T12:53:14.958Z,6.40
2018-09-29T12:55:43.232Z,6.23
2018-09-29T12:58:12.016Z,5.57
2018-09-29T13:00:40.276Z,5.70
2018-09-29T13:03:08.688Z,5.97
2018-09-29T13:05:37.045Z,4.80
2018-09-29T13:08:05.434Z,5.97
2018-09-29T13:10:33.801Z,6.07
2018-09-29T13:13:02.070Z,4.60
2018-09-29T13:15:30.433Z,5.17
2018-09-29T13:17:58.735Z,3.83
2018-09-29T13:20:27.136Z,5.13
2018-09-29T13:22:55.433Z,4.43
2018-09-29T13:25:24.027Z,4.50
2018-09-29T13:27:52.424Z,5.37
2018-09-29T13:30:20.736Z,5.50
2018-09-29T13:32:49.030Z,4.53
2018-09-29T13:35:17.273Z,4.07
2018-09-29T13:37:45.544Z,4.03
2018-09-29T13:40:13.892Z,5.30
2018-09-29T13:42:42.150Z,5.13
2018-09-29T13:45:10.596Z,5.23
2018-09-29T13:47:38.994Z,4.50
2018-09-29T13:50:07.565Z,5.23
2018-09-29T13:52:35.960Z,4.33
2018-09-29T13:55:04.281Z,4.27
2018-09-29T13:57:32.618Z,4.70
2018-09-29T14:00:00.893Z,4.70
2018-09-29T14:02:29.170Z,3.97
2018-09-29T14:04:57.486Z,4.80
2018-09-29T14:07:26.322Z,4.33
2018-09-29T14:09:54.766Z,4.43
2018-09-29T14:12:23.191Z,4.17
2018-09-29T14:14:51.619Z,4.10
2018-09-29T14:17:19.975Z,4.30
2018-09-29T14:19:48.267Z,4.60
2018-09-29T14:22:16.669Z,4.80
2018-09-29T14:24:44.946Z,4.80
2018-09-29T14:27:13.517Z,4.00
2018-09-29T14:29:41.818Z,4.40
2018-09-29T14:32:10.302Z,5.07
2018-09-29T14:34:38.729Z,3.80
2018-09-29T14:37:07.153Z,4.17
2018-09-29T14:39:35.516Z,4.20
2018-09-29T14:42:03.833Z,3.83
2018-09-29T14:44:32.210Z,4.43
2018-09-29T14:47:00.461Z,4.60
2018-09-29T14:49:28.738Z,4.37
2018-09-29T14:51:57.021Z,3.83
2018-09-29T14:54:25.290Z,3.23
2018-09-29T14:56:53.776Z,3.93
2018-09-29T14:59:22.121Z,4.20
2018-09-29T15:01:50.528Z,4.50
2018-09-29T15:04:19.022Z,3.27
2018-09-29T15:06:47.366Z,4.67
2018-09-29T15:09:15.750Z,3.37
2018-09-29T15:11:44.021Z,3.77
2018-09-29T15:14:12.848Z,4.60
2018-09-29T15:16:41.185Z,3.10
2018-09-29T15:19:09.579Z,3.70
2018-09-29T15:21:37.941Z,3.63
2018-09-29T15:24:06.662Z,4.10
2018-09-29T15:26:35.099Z,2.80
2018-09-29T15:29:03.436Z,3.97
2018-09-29T15:31:31.729Z,3.40
2018-09-29T15:34:00.096Z,4.20
2018-09-29T15:36:28.340Z,3.60
2018-09-29T15:38:56.621Z,2.80
2018-09-29T15:41:25.075Z,3.13
2018-09-29T15:43:53.275Z,3.73
2018-09-29T15:46:21.659Z,9.33
2018-09-29T15:48:50.084Z,2.53
2018-09-29T15:51:18.451Z,3.40
2018-09-29T15:53:47.321Z,3.30
2018-09-29T15:56:15.698Z,3.30
2018-09-29T15:58:44.857Z,3.77
2018-09-29T16:01:13.140Z,2.70
2018-09-29T16:03:41.497Z,3.30
2018-09-29T16:06:09.829Z,2.93
2018-09-29T16:08:38.106Z,3.47
2018-09-29T16:11:06.414Z,4.03
2018-09-29T16:13:34.880Z,4.30
2018-09-29T16:16:03.397Z,3.77
2018-09-29T16:18:32.131Z,3.30
2018-09-29T16:21:00.458Z,2.73
2018-09-29T16:23:29.012Z,2.80
2018-09-29T16:25:57.342Z,2.80
2018-09-29T16:28:25.814Z,2.90
2018-09-29T16:30:54.453Z,2.40
2018-09-29T16:33:22.892Z,3.20
2018-09-29T16:35:51.256Z,2.57
2018-09-29T16:38:19.679Z,2.73
2018-09-29T16:40:48.002Z,3.57
2018-09-29T16:43:16.383Z,2.93
2018-09-29T16:45:44.655Z,2.40
2018-09-29T16:48:13.332Z,2.50
2018-09-29T16:50:41.641Z,2.17
2018-09-29T16:53:09.946Z,3.83
2018-09-29T16:55:38.388Z,2.83
2018-09-29T16:58:07.589Z,2.80
2018-09-29T17:00:36.053Z,2.90
2018-09-29T17:03:04.784Z,3.20
2018-09-29T17:05:33.110Z,2.80
2018-09-29T17:08:01.516Z,2.17
2018-09-29T17:10:29.871Z,2.10
2018-09-29T17:12:59.023Z,1.83
2018-09-29T17:15:27.397Z,2.67
2018-09-29T17:17:55.675Z,2.33
2018-09-29T17:20:23.945Z,2.43
2018-09-29T17:22:53.350Z,2.43
2018-09-29T17:25:21.698Z,2.10
2018-09-29T17:27:49.949Z,2.10
2018-09-29T17:30:18.385Z,2.53
2018-09-29T17:32:46.663Z,2.07
2018-09-29T17:35:14.940Z,2.23
2018-09-29T17:37:43.220Z,3.00
2018-09-29T17:40:11.556Z,2.23
2018-09-29T17:42:39.959Z,1.97
2018-09-29T17:45:08.235Z,1.97
2018-09-29T17:47:36.621Z,2.10
2018-09-29T17:50:05.518Z,4.23
2018-09-29T17:52:34.011Z,2.73
2018-09-29T17:55:02.284Z,2.17
2018-09-29T17:57:30.653Z,2.83
2018-09-29T17:59:59.017Z,2.40
2018-09-29T18:02:28.482Z,2.03
2018-09-29T18:04:56.928Z,3.20
2018-09-29T18:07:25.340Z,2.80
2018-09-29T18:09:53.595Z,2.93
2018-09-29T18:12:21.961Z,2.93
2018-09-29T18:14:50.734Z,1.90
2018-09-29T18:17:19.170Z,2.40
2018-09-29T18:19:47.487Z,2.40
2018-09-29T18:22:15.782Z,3.27
2018-09-29T18:24:44.100Z,2.80
2018-09-29T18:27:12.636Z,3.00
2018-09-29T18:29:41.005Z,2.77
2018-09-29T18:32:09.566Z,2.63
2018-09-29T18:34:38.125Z,2.63
2018-09-29T18:37:06.519Z,3.20
2018-09-29T18:39:34.855Z,2.50
2018-09-29T18:42:03.190Z,2.83
2018-09-29T18:44:31.772Z,2.90
2018-09-29T18:47:00.445Z,3.50
2018-09-29T18:49:28.824Z,3.10
2018-09-29T18:51:57.486Z,6.40
2018-09-29T18:54:25.843Z,5.20
2018-09-29T18:56:54.259Z,4.50
2018-09-29T18:59:22.509Z,5.60
2018-09-29T19:01:50.743Z,4.20
2018-09-29T19:04:19.171Z,4.13
2018-09-29T19:06:47.473Z,3.30
2018-09-29T19:09:16.264Z,2.70
2018-09-29T19:11:45.348Z,2.30
2018-09-29T19:14:14.272Z,2.30
2018-09-29T19:16:42.606Z,3.53
2018-09-29T19:19:10.937Z,2.53
2018-09-29T19:21:39.205Z,2.90
2018-09-29T19:24:07.537Z,2.17
2018-09-29T19:26:35.809Z,1.70
2018-09-29T19:29:04.500Z,2.77
2018-09-29T19:31:32.993Z,2.30
2018-09-29T19:34:01.308Z,2.20
2018-09-29T19:36:29.837Z,1.93
2018-09-29T19:38:58.872Z,2.70
2018-09-29T19:41:27.313Z,2.65
2018-09-29T19:43:55.667Z,2.50
2018-09-29T19:46:23.996Z,2.37
2018-09-29T19:48:52.415Z,2.83
2018-09-29T19:51:20.758Z,3.20
2018-09-29T19:53:49.049Z,2.47
2018-09-29T19:56:17.703Z,2.70
2018-09-29T19:58:46.240Z,1.90
2018-09-29T20:01:14.648Z,2.87
2018-09-29T20:03:43.129Z,2.20
2018-09-29T20:06:11.558Z,2.40
2018-09-29T20:08:40.050Z,2.73
2018-09-29T20:11:08.679Z,2.40
2018-09-29T20:13:37.274Z,2.50
2018-09-29T20:16:05.682Z,2.20
2018-09-29T20:18:34.035Z,2.80
2018-09-29T20:21:02.391Z,2.83
2018-09-29T20:23:30.675Z,2.77
2018-09-29T20:25:58.978Z,2.50
2018-09-29T20:28:27.443Z,3.00
2018-09-29T20:30:56.517Z,2.07
2018-09-29T20:33:24.901Z,2.52
2018-09-29T20:35:53.383Z,5.90
2018-09-29T20:38:21.919Z,8.90
2018-09-29T20:40:50.293Z,3.33
2018-09-29T20:43:18.703Z,3.77
2018-09-29T20:45:47.067Z,2.62
2018-09-29T20:48:15.426Z,2.50
2018-09-29T20:50:43.680Z,1.90
2018-09-29T20:53:12.085Z,2.10
2018-09-29T20:55:40.526Z,3.30
2018-09-29T20:58:08.889Z,2.50
2018-09-29T21:00:37.246Z,3.02
2018-09-29T21:03:05.858Z,3.00
2018-09-29T21:05:34.234Z,3.15
2018-09-29T21:08:02.880Z,3.05
2018-09-29T21:10:31.402Z,3.50
2018-09-29T21:12:59.938Z,3.05
2018-09-29T21:15:28.386Z,2.80
2018-09-29T21:17:56.755Z,3.12
2018-09-29T21:20:25.069Z,4.15
2018-09-29T21:22:53.908Z,2.70
2018-09-29T21:25:23.167Z,2.37
2018-09-29T21:27:51.433Z,1.75
2018-09-29T21:30:19.801Z,1.98
2018-09-29T21:32:48.127Z,2.80
2018-09-29T21:35:16.525Z,1.80
2018-09-29T21:37:45.209Z,2.70
2018-09-29T21:40:13.704Z,3.35
2018-09-29T21:42:42.137Z,4.92
2018-09-29T21:45:10.658Z,4.17
2018-09-29T21:47:39.079Z,3.72
2018-09-29T21:50:07.679Z,3.47
2018-09-29T21:52:36.561Z,2.72
2018-09-29T21:55:04.851Z,2.58
2018-09-29T21:57:33.115Z,2.30
2018-09-29T22:00:01.393Z,2.83
2018-09-29T22:02:29.729Z,2.85
2018-09-29T22:04:58.037Z,2.00
2018-09-29T22:07:26.324Z,1.75
2018-09-29T22:09:54.579Z,10.27
2018-09-29T22:12:22.785Z,2.60
2018-09-29T22:14:51.057Z,2.23
2018-09-29T22:17:19.431Z,2.02
2018-09-29T22:19:47.701Z,2.45
2018-09-29T22:22:16.142Z,2.65
2018-09-29T22:24:44.595Z,2.10
2018-09-29T22:27:12.849Z,2.12
2018-09-29T22:29:41.256Z,2.22
2018-09-29T22:32:09.656Z,2.27
2018-09-29T22:34:38.060Z,2.17
2018-09-29T22:37:06.571Z,2.33
2018-09-29T22:39:34.843Z,2.20
2018-09-29T22:42:03.364Z,2.80
2018-09-29T22:44:31.726Z,2.70
2018-09-29T22:47:00.927Z,2.47
2018-09-29T22:49:29.258Z,2.30
2018-09-29T22:51:57.591Z,4.28
2018-09-29T22:54:25.828Z,2.27
2018-09-29T22:56:54.048Z,3.77
2018-09-29T22:59:22.359Z,3.63
2018-09-29T23:01:50.647Z,2.50
2018-09-29T23:04:18.904Z,1.80
2018-09-29T23:06:47.145Z,2.45
2018-09-29T23:09:15.410Z,2.00
2018-09-29T23:11:43.838Z,2.55
2018-09-29T23:14:12.457Z,2.02
2018-09-29T23:16:40.752Z,2.35
2018-09-29T23:19:09.132Z,1.85
2018-09-29T23:21:37.566Z,2.33
2018-09-29T23:24:06.135Z,2.12
2018-09-29T23:26:34.622Z,2.17
2018-09-29T23:29:03.094Z,2.10
2018-09-29T23:31:31.367Z,1.98
2018-09-29T23:33:59.752Z,2.50
2018-09-29T23:36:28.186Z,1.57
2018-09-29T23:38:56.443Z,2.37
2018-09-29T23:41:24.902Z,2.10
2018-09-29T23:43:53.189Z,2.92
2018-09-29T23:46:21.644Z,2.42
2018-09-29T23:48:49.897Z,2.62
2018-09-29T23:51:18.142Z,2.65
2018-09-29T23:53:46.371Z,2.30
2018-09-29T23:56:14.618Z,2.33
2018-09-29T23:58:42.884Z,2.35
